Time;durP1;ratioP1;P1;durP2;ratioP2;P2;SDS_P1;SDS_P2;PMS_P1;PMS_P2;Temp;Humidity;BMP_temperature;BMP_pressure;BME280_temperature;BME280_humidity;BME280_pressure;Samples;Min_cycle;Max_cycle;Signal;HPM_P1;HPM_P2
2024/02/08 00:01:24;;;;;;;81.70;41.50;;;8.70;99.90;;;;;;4933780;28;20458;-73
2024/02/08 00:03:50;;;;;;;81.70;41.95;;;8.70;99.90;;;;;;4931782;28;20492;-73
2024/02/08 00:06:16;;;;;;;82.18;42.03;;;8.70;99.90;;;;;;4933995;28;20036;-73
2024/02/08 00:08:42;;;;;;;83.63;41.78;;;8.80;99.90;;;;;;4932358;28;20046;-73
2024/02/08 00:11:07;;;;;;;79.75;40.30;;;8.70;99.90;;;;;;4932186;28;20047;-74
2024/02/08 00:13:34;;;;;;;83.38;41.50;;;8.70;99.90;;;;;;4950991;28;20039;-73
2024/02/08 00:16:00;;;;;;;78.30;39.83;;;8.60;99.90;;;;;;4934902;28;20043;-73
2024/02/08 00:18:26;;;;;;;83.22;39.60;;;8.60;99.90;;;;;;4937570;28;20066;-73
2024/02/08 00:20:52;;;;;;;76.10;40.90;;;8.60;99.90;;;;;;4936662;28;20556;-73
2024/02/08 00:23:18;;;;;;;79.63;40.83;;;8.60;99.90;;;;;;4937847;28;20081;-73
2024/02/08 00:25:46;;;;;;;77.45;39.45;;;8.60;99.90;;;;;;4937559;28;20898;-73
2024/02/08 00:28:13;;;;;;;75.90;39.92;;;8.60;99.90;;;;;;4936076;29;20035;-73
2024/02/08 00:30:40;;;;;;;78.38;41.85;;;8.60;99.90;;;;;;4935699;29;20047;-73
2024/02/08 00:33:07;;;;;;;84.03;39.72;;;8.60;99.90;;;;;;4937311;28;20027;-72
2024/02/08 00:35:33;;;;;;;74.63;40.00;;;8.60;99.90;;;;;;4936975;28;20043;-73
2024/02/08 00:37:59;;;;;;;80.15;38.83;;;8.60;99.90;;;;;;4935258;28;20032;-73
2024/02/08 00:40:25;;;;;;;75.18;39.28;;;8.60;99.90;;;;;;4937590;28;20043;-73
2024/02/08 00:42:51;;;;;;;79.20;40.15;;;8.60;99.90;;;;;;4937391;28;20499;-73
2024/02/08 00:45:22;;;;;;;77.03;37.55;;;8.70;99.90;;;;;;4936251;28;20070;-73
2024/02/08 00:47:51;;;;;;;76.00;38.42;;;8.60;99.90;;;;;;4937336;28;20183;-73
2024/02/08 00:50:19;;;;;;;74.95;37.35;;;8.60;99.90;;;;;;4937640;28;20473;-73
2024/02/08 00:52:44;;;;;;;79.95;39.35;;;8.50;99.90;;;;;;4934206;28;20082;-73
2024/02/08 00:55:10;;;;;;;77.55;39.88;;;8.60;99.90;;;;;;4936050;28;20098;-74
2024/02/08 00:57:36;;;;;;;77.90;39.10;;;8.50;99.90;;;;;;4937643;28;20067;-73
2024/02/08 01:00:02;;;;;;;77.53;38.08;;;8.40;99.90;;;;;;4934912;28;20035;-73
2024/02/08 01:02:28;;;;;;;77.20;40.97;;;8.40;99.90;;;;;;4935484;28;20046;-73
2024/02/08 01:04:54;;;;;;;76.00;36.72;;;8.50;99.90;;;;;;4933925;28;20039;-73
2024/02/08 01:07:21;;;;;;;74.20;36.90;;;8.50;99.90;;;;;;4935341;28;20039;-73
2024/02/08 01:09:46;;;;;;;85.28;43.40;;;8.50;99.90;;;;;;4934674;28;20409;-73
2024/02/08 01:12:12;;;;;;;86.93;44.28;;;8.40;99.90;;;;;;4937836;28;20047;-73
2024/02/08 01:14:38;;;;;;;85.30;42.80;;;8.20;99.90;;;;;;4934610;28;20031;-73
2024/02/08 01:17:05;;;;;;;80.70;41.95;;;8.30;99.90;;;;;;4937280;29;20429;-73
2024/02/08 01:19:31;;;;;;;81.47;41.35;;;8.30;99.90;;;;;;4936545;28;20046;-73
2024/02/08 01:21:57;;;;;;;81.45;40.92;;;8.40;99.90;;;;;;4934871;28;20034;-73
2024/02/08 01:24:23;;;;;;;83.25;44.05;;;8.40;99.90;;;;;;4937081;29;20035;-73
2024/02/08 01:26:50;;;;;;;79.13;41.08;;;8.40;99.90;;;;;;4934288;28;20759;-73
2024/02/08 01:29:17;;;;;;;84.95;40.63;;;8.30;99.90;;;;;;4934937;28;20046;-73
2024/02/08 01:31:43;;;;;;;77.40;40.75;;;8.40;99.90;;;;;;4936988;28;20051;-73
2024/02/08 01:34:10;;;;;;;84.38;42.53;;;8.40;99.90;;;;;;4935722;28;20043;-73
2024/02/08 01:36:39;;;;;;;76.25;40.40;;;8.40;99.90;;;;;;4935872;28;20043;-73
2024/02/08 01:39:07;;;;;;;86.82;41.70;;;8.50;99.90;;;;;;4935371;28;20470;-74
2024/02/08 01:41:34;;;;;;;72.40;38.75;;;8.50;99.90;;;;;;4936607;28;20035;-73
2024/02/08 01:44:03;;;;;;;74.88;38.15;;;8.50;99.90;;;;;;4935878;28;20094;-73
2024/02/08 01:46:37;;;;;;;77.15;38.60;;;8.50;99.90;;;;;;4935294;28;20117;-73
2024/02/08 01:49:05;;;;;;;73.78;35.97;;;8.50;99.90;;;;;;4935985;29;20437;-73
2024/02/08 01:51:31;;;;;;;77.22;37.33;;;8.50;99.90;;;;;;4948198;28;20629;-73
2024/02/08 01:54:01;;;;;;;77.57;38.53;;;8.40;99.90;;;;;;4935871;29;20763;-74
2024/02/08 01:56:30;;;;;;;77.57;40.42;;;8.30;99.90;;;;;;4935411;28;20055;-73
2024/02/08 01:59:00;;;;;;;79.57;39.60;;;8.30;99.90;;;;;;4935346;29;20066;-73
2024/02/08 02:01:26;;;;;;;73.22;38.72;;;8.20;99.90;;;;;;4935910;28;20054;-72
2024/02/08 02:03:52;;;;;;;79.28;40.03;;;8.30;99.90;;;;;;4933976;28;20074;-73
2024/02/08 02:06:18;;;;;;;75.18;38.10;;;8.20;99.90;;;;;;4936152;28;20390;-73
2024/02/08 02:08:57;;;;;;;77.05;39.63;;;8.10;99.90;;;;;;4930259;28;20036;-73
2024/02/08 02:11:44;;;;;;;76.80;39.25;;;8.10;99.90;;;;;;4934156;28;20525;-73
2024/02/08 02:14:11;;;;;;;70.90;38.08;;;8.10;99.90;;;;;;4932701;28;20795;-73
2024/02/08 02:16:36;;;;;;;70.20;36.10;;;8.20;99.90;;;;;;4934158;28;20027;-74
2024/02/08 02:19:06;;;;;;;76.40;37.72;;;8.20;99.90;;;;;;4933826;28;20575;-73
2024/02/08 02:21:34;;;;;;;73.13;35.45;;;8.30;99.90;;;;;;4934037;28;20042;-73
2024/02/08 02:24:00;;;;;;;76.65;39.00;;;8.30;99.90;;;;;;4937515;28;20135;-73
2024/02/08 02:26:26;;;;;;;72.72;36.85;;;8.20;99.90;;;;;;4933865;28;20082;-73
2024/02/08 02:28:52;;;;;;;70.72;36.05;;;8.20;99.90;;;;;;4935504;28;20043;-73
2024/02/08 02:31:21;;;;;;;69.10;36.20;;;8.20;99.90;;;;;;4933983;28;20047;-73
2024/02/08 02:33:48;;;;;;;80.18;39.53;;;8.10;99.90;;;;;;4936123;28;21250;-73
2024/02/08 02:36:14;;;;;;;75.32;36.90;;;8.10;99.90;;;;;;4933844;28;20071;-73
2024/02/08 02:38:41;;;;;;;75.80;39.13;;;8.10;99.90;;;;;;4936606;29;20170;-73
2024/02/08 02:41:07;;;;;;;77.50;39.90;;;8.00;99.90;;;;;;4933773;28;20040;-73
2024/02/08 02:43:37;;;;;;;76.32;37.53;;;8.00;99.90;;;;;;4933685;28;20047;-74
2024/02/08 02:46:06;;;;;;;72.25;38.05;;;8.00;99.90;;;;;;4935986;28;20047;-73
2024/02/08 02:48:35;;;;;;;72.88;39.45;;;8.10;99.90;;;;;;4935610;28;20035;-73
2024/02/08 02:51:01;;;;;;;85.38;39.58;;;8.10;99.90;;;;;;4931640;28;20082;-73
2024/02/08 02:53:30;;;;;;;78.47;40.10;;;8.10;99.90;;;;;;4933554;28;20027;-73
2024/02/08 02:55:58;;;;;;;72.35;38.45;;;8.10;99.90;;;;;;4933876;28;20039;-73
2024/02/08 02:58:25;;;;;;;78.55;40.47;;;8.00;99.90;;;;;;4934547;28;20126;-74
2024/02/08 03:01:04;;;;;;;75.95;39.15;;;8.10;99.90;;;;;;4934149;28;20035;-73
2024/02/08 03:03:37;;;;;;;70.97;38.60;;;8.10;99.90;;;;;;4932614;28;20027;-73
2024/02/08 03:06:13;;;;;;;68.93;35.95;;;8.20;99.90;;;;;;4934966;28;20035;-72
2024/02/08 03:08:42;;;;;;;67.95;37.10;;;8.30;99.90;;;;;;4934136;28;20638;-73
2024/02/08 03:11:12;;;;;;;69.93;36.05;;;8.20;99.90;;;;;;4933415;28;20652;-73
2024/02/08 03:13:42;;;;;;;72.28;37.15;;;8.20;99.90;;;;;;4932648;28;20058;-74
2024/02/08 03:16:16;;;;;;;81.15;36.40;;;8.10;99.90;;;;;;4935539;28;20389;-73
2024/02/08 03:18:43;;;;;;;76.85;40.60;;;8.00;99.90;;;;;;4934661;28;20038;-74
2024/02/08 03:21:17;;;;;;;64.22;36.03;;;8.00;99.90;;;;;;4933792;28;21397;-74
2024/02/08 03:23:47;;;;;;;71.18;35.28;;;8.10;99.90;;;;;;4933914;28;20031;-73
2024/02/08 03:26:15;;;;;;;68.32;36.17;;;8.00;99.90;;;;;;4933769;28;20030;-73
2024/02/08 03:28:42;;;;;;;68.60;35.58;;;8.10;99.90;;;;;;4932892;28;20039;-73
2024/02/08 03:31:09;;;;;;;74.63;38.42;;;8.00;99.90;;;;;;4933152;28;21417;-74
2024/02/08 03:33:37;;;;;;;69.72;36.20;;;7.90;99.90;;;;;;4933970;28;20514;-74
2024/02/08 03:36:09;;;;;;;66.70;36.65;;;7.90;99.90;;;;;;4932398;28;20749;-72
2024/02/08 03:38:35;;;;;;;71.80;38.53;;;7.90;99.90;;;;;;4933380;29;20027;-72
2024/02/08 03:41:01;;;;;;;77.30;40.28;;;8.00;99.90;;;;;;4934249;28;20046;-72
2024/02/08 03:43:27;;;;;;;77.15;40.03;;;8.00;99.90;;;;;;4934595;28;20023;-72
2024/02/08 03:45:56;;;;;;;72.78;39.55;;;8.00;99.90;;;;;;4933022;28;20035;-72
2024/02/08 03:48:24;;;;;;;75.53;39.88;;;8.10;99.90;;;;;;4935046;28;20040;-72
2024/02/08 03:50:50;;;;;;;71.50;39.45;;;8.10;99.90;;;;;;4934734;29;20058;-72
2024/02/08 03:53:17;;;;;;;80.68;40.15;;;8.00;99.90;;;;;;4931274;29;20035;-73
2024/02/08 03:55:47;;;;;;;78.75;44.65;;;8.00;99.90;;;;;;4933035;29;20039;-73
2024/02/08 03:58:17;;;;;;;80.22;43.08;;;7.90;99.90;;;;;;4933997;29;20043;-73
2024/02/08 04:00:46;;;;;;;79.13;39.55;;;7.90;99.90;;;;;;4931883;28;20024;-73
2024/02/08 04:03:14;;;;;;;74.57;40.88;;;8.10;99.90;;;;;;4929992;28;20050;-73
2024/02/08 04:54:42;;;;;;;76.70;41.58;;;7.80;99.90;;;;;;4930234;29;20268;-74
2024/02/08 04:57:09;;;;;;;94.35;51.35;;;7.80;99.90;;;;;;4931609;28;20770;-75
2024/02/08 04:59:40;;;;;;;81.38;40.53;;;7.70;99.90;;;;;;4928931;28;20078;-74
2024/02/08 05:02:06;;;;;;;85.03;44.42;;;7.90;99.90;;;;;;4929072;28;20578;-74
2024/02/08 05:04:38;;;;;;;76.53;40.83;;;7.80;99.90;;;;;;4931080;28;20031;-74
2024/02/08 05:07:04;;;;;;;73.93;41.13;;;7.80;99.90;;;;;;4930472;28;20118;-74
2024/02/08 05:09:31;;;;;;;77.68;43.13;;;7.80;99.90;;;;;;4927954;28;20039;-74
2024/02/08 05:11:59;;;;;;;76.38;41.63;;;7.90;99.90;;;;;;4930585;29;20043;-75
2024/02/08 05:14:25;;;;;;;75.10;39.35;;;7.90;99.90;;;;;;4930618;28;20039;-73
2024/02/08 05:16:54;;;;;;;72.45;41.40;;;8.00;99.90;;;;;;4927750;28;20043;-75
2024/02/08 05:19:23;;;;;;;73.65;37.30;;;8.10;99.90;;;;;;4926939;28;20027;-75
2024/02/08 05:21:50;;;;;;;72.93;38.88;;;8.10;99.90;;;;;;4930077;28;20043;-74
2024/02/08 05:24:15;;;;;;;76.38;38.00;;;8.10;99.90;;;;;;4929610;28;20041;-74
2024/02/08 05:26:41;;;;;;;69.75;35.80;;;8.00;99.90;;;;;;4927513;28;20043;-74
2024/02/08 05:29:08;;;;;;;74.03;37.47;;;8.00;99.90;;;;;;4929354;28;20070;-73
2024/02/08 05:31:39;;;;;;;71.43;39.50;;;8.10;99.90;;;;;;4928844;28;20137;-74
2024/02/08 05:34:10;;;;;;;71.43;38.30;;;8.10;99.90;;;;;;4930281;28;20066;-74
2024/02/08 05:36:39;;;;;;;69.68;36.13;;;8.20;99.90;;;;;;4928932;28;20661;-75
2024/02/08 05:39:05;;;;;;;61.50;33.38;;;8.10;99.90;;;;;;4930102;28;20097;-75
2024/02/08 05:41:33;;;;;;;71.03;36.70;;;8.20;99.90;;;;;;4927033;28;20047;-74
2024/02/08 05:44:05;;;;;;;69.63;37.97;;;8.20;99.90;;;;;;4930340;28;20521;-74
2024/02/08 05:46:37;;;;;;;74.20;37.25;;;8.10;99.90;;;;;;4928317;28;20039;-74
2024/02/08 05:49:22;;;;;;;66.63;36.40;;;8.10;99.90;;;;;;4928934;28;20039;-75
2024/02/08 05:51:51;;;;;;;74.70;37.47;;;8.10;99.90;;;;;;4925245;28;20126;-75
2024/02/08 05:54:20;;;;;;;73.75;38.47;;;8.00;99.90;;;;;;4928674;29;20055;-74
2024/02/08 05:56:46;;;;;;;66.10;36.75;;;8.00;99.90;;;;;;4928234;28;20062;-74
2024/02/08 05:59:17;;;;;;;68.35;36.33;;;8.00;99.90;;;;;;4929868;28;20374;-74
2024/02/08 06:01:47;;;;;;;66.55;37.30;;;8.10;99.90;;;;;;4929081;28;20039;-74
2024/02/08 06:04:24;;;;;;;69.50;33.40;;;8.00;99.90;;;;;;4930873;28;20417;-74
2024/02/08 06:07:05;;;;;;;68.57;35.63;;;8.00;99.90;;;;;;4927523;29;20484;-74
2024/02/08 06:12:42;;;;;;;68.38;35.25;;;7.90;99.90;;;;;;4928191;29;20046;-74
2024/02/08 06:15:33;;;;;;;;;;;7.90;99.90;;;;;;4929941;28;20031;-75
2024/02/08 06:18:04;;;;;;;70.10;38.20;;;7.90;99.90;;;;;;4932995;28;19936;-74
2024/02/08 06:20:40;;;;;;;65.18;36.38;;;7.80;99.90;;;;;;4928655;28;21389;-73
2024/02/08 06:28:47;;;;;;;68.55;35.25;;;7.50;99.90;;;;;;4927892;28;20453;-73
2024/02/08 06:31:19;;;;;;;71.13;37.97;;;7.50;99.90;;;;;;4928188;28;20107;-74
2024/02/08 06:36:33;;;;;;;73.32;36.92;;;7.40;99.90;;;;;;4928690;28;20054;-73
2024/02/08 06:39:20;;;;;;;77.93;38.40;;;7.40;99.90;;;;;;4928007;28;20055;-74
2024/02/08 06:42:07;;;;;;;73.88;38.58;;;7.40;99.90;;;;;;4927964;28;20039;-73
2024/02/08 07:41:55;;;;;;;62.85;35.25;;;7.80;99.90;;;;;;4927771;28;20070;-72
2024/02/08 07:44:22;;;;;;;67.28;33.97;;;7.90;99.90;;;;;;4928123;28;20036;-73
2024/02/08 07:46:54;;;;;;;66.15;33.40;;;7.90;99.90;;;;;;4929467;29;20189;-73
2024/02/08 07:49:29;;;;;;;63.72;34.67;;;7.90;99.90;;;;;;4926260;28;20055;-73
2024/02/08 07:51:58;;;;;;;60.00;31.50;;;8.00;99.90;;;;;;4927035;28;20370;-73
2024/02/08 07:54:24;;;;;;;56.85;29.80;;;8.10;99.90;;;;;;4928014;28;21255;-73
2024/02/08 07:56:53;;;;;;;60.05;32.03;;;8.10;99.90;;;;;;4926530;28;20054;-73
2024/02/08 07:59:26;;;;;;;57.38;29.83;;;8.20;99.90;;;;;;4925299;28;20046;-74
2024/02/08 08:01:53;;;;;;;57.30;30.52;;;8.20;99.90;;;;;;4928660;28;20113;-72
2024/02/08 08:07:07;;;;;;;;;;;8.10;99.90;;;;;;4928787;28;20050;-73
2024/02/08 08:09:36;;;;;;;59.30;30.58;;;8.20;99.90;;;;;;4930154;28;20431;-73
2024/02/08 08:12:04;;;;;;;58.13;30.80;;;8.30;99.90;;;;;;4929037;28;20043;-74
2024/02/08 08:17:08;;;;;;;56.78;29.05;;;8.20;99.90;;;;;;4923198;29;20097;-74
2024/02/08 08:19:58;;;;;;;55.88;30.05;;;8.20;99.90;;;;;;4942246;28;21064;-74
2024/02/08 08:27:53;;;;;;;56.20;31.20;;;7.70;99.90;;;;;;4932523;28;20043;-74
2024/02/08 08:30:28;;;;;;;54.28;29.95;;;7.70;99.90;;;;;;4931490;28;20505;-73
2024/02/08 08:40:49;;;;;;;52.55;28.00;;;7.90;99.90;;;;;;4931990;28;20129;-74
2024/02/08 08:43:19;;;;;;;54.10;28.60;;;7.90;99.90;;;;;;4932520;28;20039;-74
2024/02/08 08:45:50;;;;;;;67.75;30.83;;;8.10;99.90;;;;;;4933347;28;20205;-74
2024/02/08 08:48:30;;;;;;;59.97;29.30;;;8.20;99.90;;;;;;4932847;28;20062;-74
2024/02/08 08:51:10;;;;;;;54.88;30.08;;;8.30;99.90;;;;;;4932870;28;20039;-74
2024/02/08 08:53:43;;;;;;;50.17;26.75;;;8.30;99.90;;;;;;4931286;28;20035;-73
2024/02/08 08:56:12;;;;;;;55.47;29.02;;;8.40;99.90;;;;;;4930744;28;20031;-74
2024/02/08 08:58:41;;;;;;;52.45;29.05;;;8.50;99.90;;;;;;4931987;28;20043;-74
2024/02/08 09:01:18;;;;;;;61.70;29.67;;;8.50;99.90;;;;;;4933506;28;20126;-74
2024/02/08 09:04:09;;;;;;;56.17;29.08;;;8.50;99.90;;;;;;4932772;28;20035;-74
2024/02/08 09:06:41;;;;;;;50.67;28.77;;;8.50;99.90;;;;;;4930272;28;20043;-74
2024/02/08 09:11:57;;;;;;;54.60;30.15;;;8.30;99.90;;;;;;4927636;28;20070;-74
2024/02/08 09:14:30;;;;;;;58.50;31.40;;;8.20;99.90;;;;;;4930080;28;20023;-74
2024/02/08 09:16:59;;;;;;;52.72;28.95;;;8.20;99.90;;;;;;4959062;28;20659;-74
2024/02/08 09:19:29;;;;;;;60.65;29.60;;;8.40;99.90;;;;;;4931428;28;20062;-74
2024/02/08 09:22:06;;;;;;;55.88;29.60;;;8.30;99.90;;;;;;4930479;28;20389;-74
2024/02/08 09:24:38;;;;;;;49.47;28.25;;;8.30;99.90;;;;;;4931104;28;20042;-74
2024/02/08 09:27:16;;;;;;;55.88;30.13;;;8.30;99.90;;;;;;4930053;28;20039;-74
2024/02/08 09:29:56;;;;;;;57.00;30.10;;;8.40;99.90;;;;;;4932365;28;20043;-74
2024/02/08 09:35:11;;;;;;;59.13;29.98;;;8.50;99.90;;;;;;4933365;29;20050;-74
2024/02/08 09:37:46;;;;;;;56.88;30.20;;;8.60;99.90;;;;;;4932397;28;20123;-75
2024/02/08 09:42:57;;;;;;;56.25;28.40;;;8.70;99.90;;;;;;4931423;28;20686;-74
2024/02/08 09:48:06;;;;;;;53.25;28.00;;;8.90;99.90;;;;;;4932326;28;20069;-74
2024/02/08 09:50:36;;;;;;;52.50;27.75;;;8.90;99.90;;;;;;4932397;28;20024;-74
2024/02/08 09:53:27;;;;;;;53.00;27.25;;;9.00;99.90;;;;;;4931211;28;20620;-74
2024/02/08 09:55:56;;;;;;;49.17;28.00;;;8.90;99.90;;;;;;4931846;28;20040;-75
2024/02/08 09:58:39;;;;;;;49.50;31.38;;;8.90;99.90;;;;;;4930162;28;20027;-74
2024/02/08 10:01:22;;;;;;;51.63;29.38;;;8.80;99.90;;;;;;4929972;28;20035;-75
2024/02/08 10:03:49;;;;;;;53.63;29.90;;;8.90;99.90;;;;;;4930189;28;20090;-75
2024/02/08 10:06:24;;;;;;;48.45;27.38;;;9.10;99.90;;;;;;4932043;28;20039;-76
2024/02/08 10:09:08;;;;;;;53.13;28.23;;;9.10;99.90;;;;;;4929646;28;20118;-74
2024/02/08 10:11:43;;;;;;;51.55;27.75;;;9.10;99.90;;;;;;4930067;28;20047;-74
2024/02/08 10:14:25;;;;;;;49.95;26.48;;;9.10;99.90;;;;;;4931065;28;20046;-74
2024/02/08 10:16:58;;;;;;;47.50;25.77;;;9.20;99.90;;;;;;4929284;28;20038;-74
2024/02/08 10:21:57;;;;;;;46.85;25.73;;;9.20;99.90;;;;;;4931137;28;20046;-74
2024/02/08 10:24:44;;;;;;;51.30;26.38;;;9.30;99.90;;;;;;4930642;28;20126;-74
2024/02/08 10:27:21;;;;;;;50.08;28.17;;;9.40;99.90;;;;;;4930837;28;20086;-74
2024/02/08 10:30:05;;;;;;;54.70;28.83;;;9.40;99.90;;;;;;4927409;28;20054;-74
2024/02/08 10:32:32;;;;;;;53.27;28.87;;;9.30;99.90;;;;;;4926991;28;20396;-73
2024/02/08 10:35:26;;;;;;;46.80;25.63;;;9.30;99.90;;;;;;4924214;28;20042;-74
2024/02/08 10:38:14;;;;;;;46.15;24.65;;;9.50;99.90;;;;;;4929448;28;20031;-74
2024/02/08 10:40:40;;;;;;;51.50;26.08;;;9.70;99.90;;;;;;4931151;28;20074;-73
2024/02/08 10:43:16;;;;;;;54.65;26.95;;;9.90;99.90;;;;;;4931282;28;20131;-74
2024/02/08 10:45:53;;;;;;;47.78;24.50;;;9.90;99.90;;;;;;4930663;28;20031;-74
2024/02/08 10:48:28;;;;;;;48.58;26.33;;;10.00;99.90;;;;;;4929834;28;20516;-74
2024/02/08 10:51:00;;;;;;;49.97;27.40;;;10.00;99.90;;;;;;4930614;28;20066;-74
2024/02/08 10:53:48;;;;;;;48.60;29.73;;;10.10;99.90;;;;;;4930912;28;20035;-74
2024/02/08 10:56:17;;;;;;;55.88;29.30;;;10.00;99.90;;;;;;4930210;28;20039;-74
2024/02/08 10:59:38;;;;;;;57.20;31.25;;;10.00;99.90;;;;;;4930266;28;20039;-74
2024/02/08 11:04:20;;;;;;;62.17;32.55;;;10.00;99.90;;;;;;4931271;28;20035;-74
2024/02/08 11:06:56;;;;;;;55.30;31.88;;;10.10;99.90;;;;;;4930643;28;20019;-73
2024/02/08 11:09:22;;;;;;;52.38;29.55;;;10.40;99.90;;;;;;4929220;28;20031;-74
2024/02/08 11:12:04;;;;;;;57.50;27.90;;;10.50;99.90;;;;;;4931544;28;20047;-74
2024/02/08 11:14:40;;;;;;;51.55;28.52;;;10.50;99.90;;;;;;4930831;28;20098;-74
2024/02/08 11:17:26;;;;;;;54.47;29.02;;;10.50;99.90;;;;;;4929135;28;20121;-73
2024/02/08 11:19:56;;;;;;;55.53;29.63;;;10.70;99.90;;;;;;4930028;28;20672;-73
2024/02/08 11:22:40;;;;;;;57.63;31.08;;;10.90;99.90;;;;;;4929235;28;21287;-74
2024/02/08 11:25:33;;;;;;;62.47;30.40;;;10.90;99.90;;;;;;4930163;28;20038;-74
2024/02/08 11:28:11;;;;;;;51.80;29.38;;;11.00;99.90;;;;;;4930901;28;20027;-74
2024/02/08 11:30:39;;;;;;;50.78;26.95;;;11.10;99.90;;;;;;4929265;28;20066;-74
2024/02/08 11:33:12;;;;;;;56.45;28.27;;;11.10;99.90;;;;;;4928113;28;20054;-74
2024/02/08 11:35:56;;;;;;;58.10;31.38;;;11.10;99.90;;;;;;4929437;28;20042;-74
2024/02/08 11:38:26;;;;;;;59.78;31.50;;;11.00;99.90;;;;;;4928945;28;20039;-74
2024/02/08 11:40:55;;;;;;;58.08;30.48;;;11.20;99.90;;;;;;4930940;28;21016;-75
2024/02/08 11:43:25;;;;;;;61.97;29.25;;;11.40;99.90;;;;;;4931821;28;20116;-74
2024/02/08 11:45:55;;;;;;;63.17;32.90;;;11.60;99.90;;;;;;4934434;28;20358;-75
2024/02/08 11:48:26;;;;;;;63.00;32.28;;;11.80;99.90;;;;;;4932813;28;20039;-75
2024/02/08 11:50:55;;;;;;;56.60;30.60;;;11.80;99.90;;;;;;4935141;28;20068;-75
2024/02/08 11:53:34;;;;;;;56.63;30.38;;;11.70;99.90;;;;;;4933047;28;20581;-74
2024/02/08 11:56:07;;;;;;;56.92;29.63;;;11.90;99.90;;;;;;4933433;28;20039;-74
2024/02/08 11:58:36;;;;;;;60.00;30.33;;;11.90;99.90;;;;;;4933874;28;20042;-75
2024/02/08 12:01:05;;;;;;;60.35;32.45;;;11.80;99.90;;;;;;4935865;28;20390;-75
2024/02/08 12:03:31;;;;;;;58.80;32.08;;;11.90;99.90;;;;;;4932927;28;20035;-75
2024/02/08 12:06:01;;;;;;;111.30;38.17;;;11.90;99.90;;;;;;4933154;28;20069;-75
2024/02/08 12:08:28;;;;;;;65.38;36.90;;;12.00;99.90;;;;;;4933394;28;20031;-75
2024/02/08 12:10:53;;;;;;;67.50;34.25;;;12.00;99.90;;;;;;4933757;29;20038;-75
2024/02/08 12:13:26;;;;;;;68.88;37.13;;;12.10;99.90;;;;;;4932699;28;20035;-75
2024/02/08 12:15:55;;;;;;;67.47;33.35;;;11.90;99.90;;;;;;4934158;28;20035;-75
2024/02/08 12:18:27;;;;;;;57.58;30.77;;;12.20;99.90;;;;;;4930087;28;20035;-73
2024/02/08 12:20:58;;;;;;;57.22;32.00;;;12.30;99.90;;;;;;4929716;28;21755;-75
2024/02/08 12:23:23;;;;;;;68.13;33.38;;;12.20;99.90;;;;;;4930789;28;20034;-75
2024/02/08 12:25:55;;;;;;;61.88;30.83;;;12.00;99.90;;;;;;4931652;28;20425;-75
2024/02/08 12:28:24;;;;;;;62.70;30.05;;;12.00;99.90;;;;;;4928819;28;20050;-75
2024/02/08 12:30:59;;;;;;;61.03;32.30;;;12.10;99.90;;;;;;4927614;29;20043;-74
2024/02/08 12:33:28;;;;;;;59.97;31.92;;;12.20;99.90;;;;;;4928556;28;20215;-75
2024/02/08 12:35:58;;;;;;;68.10;32.85;;;12.30;99.90;;;;;;4929651;28;20584;-74
2024/02/08 12:38:26;;;;;;;58.63;31.30;;;12.40;99.90;;;;;;4927870;28;20123;-74
2024/02/08 12:40:55;;;;;;;60.10;29.65;;;12.60;99.90;;;;;;4929415;28;20453;-75
2024/02/08 12:43:21;;;;;;;62.85;33.33;;;12.60;99.90;;;;;;4930272;28;20034;-75
2024/02/08 12:45:56;;;;;;;64.07;30.98;;;12.50;99.90;;;;;;4928987;28;20042;-76
2024/02/08 12:48:22;;;;;;;56.75;28.02;;;12.30;99.50;;;;;;4927640;28;20649;-74
2024/02/08 12:51:03;;;;;;;63.15;30.25;;;12.30;99.70;;;;;;4928965;28;20027;-74
2024/02/08 12:53:32;;;;;;;59.10;30.50;;;12.50;99.90;;;;;;4929492;28;20094;-74
2024/02/08 12:56:09;;;;;;;54.58;29.25;;;12.50;99.60;;;;;;4929839;28;20098;-75
2024/02/08 12:58:35;;;;;;;55.78;27.95;;;12.50;99.40;;;;;;4930106;28;20039;-74
2024/02/08 13:01:04;;;;;;;59.35;30.00;;;12.70;99.50;;;;;;4926693;28;20042;-74
2024/02/08 13:03:37;;;;;;;57.33;31.77;;;12.70;99.20;;;;;;4930121;29;20054;-73
2024/02/08 13:06:04;;;;;;;58.80;29.05;;;12.70;99.40;;;;;;4931111;28;20055;-74
2024/02/08 13:08:33;;;;;;;54.67;30.20;;;12.60;99.30;;;;;;4929351;28;20040;-75
2024/02/08 13:11:01;;;;;;;54.25;27.55;;;12.70;99.50;;;;;;4928695;28;20074;-75
2024/02/08 13:13:28;;;;;;;56.30;30.02;;;12.70;99.40;;;;;;4929167;28;20140;-75
2024/02/08 13:15:58;;;;;;;54.75;32.50;;;12.70;99.40;;;;;;4928739;28;20035;-75
2024/02/08 13:18:31;;;;;;;55.75;28.08;;;12.80;99.40;;;;;;4928763;28;20668;-75
2024/02/08 13:20:57;;;;;;;53.08;27.50;;;13.00;99.30;;;;;;4929077;28;20074;-75
2024/02/08 13:23:24;;;;;;;57.70;28.65;;;13.20;99.30;;;;;;4929008;28;20130;-75
2024/02/08 13:25:56;;;;;;;51.53;26.20;;;13.30;99.40;;;;;;4928186;28;20481;-77
2024/02/08 13:28:25;;;;;;;53.28;27.95;;;13.30;99.40;;;;;;4929245;28;20023;-75
2024/02/08 13:30:53;;;;;;;55.72;28.20;;;13.30;99.50;;;;;;4926207;28;20046;-76
2024/02/08 13:33:19;;;;;;;44.95;26.40;;;13.30;99.30;;;;;;4925874;28;20474;-74
2024/02/08 13:35:48;;;;;;;51.08;26.70;;;13.30;99.10;;;;;;4929699;29;20106;-75
2024/02/08 13:38:17;;;;;;;50.85;25.23;;;13.30;99.10;;;;;;4927912;29;20038;-75
2024/02/08 13:40:43;;;;;;;48.53;24.38;;;13.30;98.90;;;;;;4928428;29;20039;-74
2024/02/08 13:43:10;;;;;;;48.50;26.52;;;13.30;99.10;;;;;;4927472;29;20071;-74
2024/02/08 13:45:37;;;;;;;55.83;27.52;;;13.50;99.40;;;;;;4930200;28;20031;-75
2024/02/08 13:48:05;;;;;;;44.75;23.98;;;13.60;98.80;;;;;;4929749;28;20078;-75
2024/02/08 13:50:33;;;;;;;42.63;23.30;;;13.60;98.80;;;;;;4927356;28;20117;-74
2024/02/08 13:52:59;;;;;;;47.90;24.95;;;13.40;99.00;;;;;;4928169;28;20071;-75
2024/02/08 13:55:31;;;;;;;43.90;24.00;;;13.30;98.90;;;;;;4929199;28;20046;-76
2024/02/08 13:57:59;;;;;;;38.97;19.52;;;13.30;99.20;;;;;;4925356;28;20059;-77
2024/02/08 14:00:30;;;;;;;41.15;21.05;;;13.20;98.90;;;;;;4928675;28;20363;-76
2024/02/08 14:02:57;;;;;;;39.97;22.20;;;13.30;98.80;;;;;;4929348;28;20463;-76
2024/02/08 14:05:25;;;;;;;47.40;23.00;;;13.30;99.10;;;;;;4927644;28;21739;-75
2024/02/08 14:07:54;;;;;;;39.80;20.80;;;13.40;99.00;;;;;;4928648;28;20031;-75
2024/02/08 14:10:32;;;;;;;45.60;22.00;;;13.50;98.70;;;;;;4928405;28;20608;-75
2024/02/08 14:12:59;;;;;;;41.20;17.45;;;13.50;98.90;;;;;;4930010;28;21458;-75
2024/02/08 14:15:29;;;;;;;27.35;13.93;;;13.70;98.50;;;;;;4928768;28;20514;-75
2024/02/08 14:18:11;;;;;;;32.97;15.45;;;13.70;98.50;;;;;;4928309;28;20126;-75
2024/02/08 14:20:47;;;;;;;37.17;17.08;;;13.80;98.40;;;;;;4926279;28;20032;-75
2024/02/08 14:23:14;;;;;;;33.25;14.35;;;13.90;98.40;;;;;;4926676;28;20490;-75
2024/02/08 14:26:09;;;;;;;37.60;21.70;;;13.90;98.20;;;;;;4929382;28;20039;-76
2024/02/08 14:28:42;;;;;;;48.72;25.02;;;13.80;97.90;;;;;;4929217;28;20143;-75
2024/02/08 14:31:14;;;;;;;50.05;25.55;;;13.50;98.10;;;;;;4928812;29;20485;-76
2024/02/08 14:33:46;;;;;;;61.33;36.25;;;13.30;98.30;;;;;;4928958;28;21442;-75
2024/02/08 14:36:13;;;;;;;75.43;39.22;;;13.10;98.30;;;;;;4928342;28;20035;-76
2024/02/08 14:38:41;;;;;;;56.67;30.17;;;13.10;98.40;;;;;;4930163;28;20389;-75
2024/02/08 14:41:25;;;;;;;50.08;26.25;;;13.10;98.50;;;;;;4931378;28;20033;-76
2024/02/08 14:43:54;;;;;;;38.92;20.48;;;13.20;98.50;;;;;;4930247;28;20039;-75
2024/02/08 14:46:26;;;;;;;33.53;17.17;;;13.20;98.50;;;;;;4930120;28;20113;-76
2024/02/08 14:48:53;;;;;;;35.65;14.98;;;13.30;98.70;;;;;;4930918;28;20581;-75
2024/02/08 14:53:44;;;;;;;29.02;14.75;;;13.50;98.60;;;;;;4929585;28;20051;-76
2024/02/08 14:56:18;;;;;;;34.75;14.93;;;13.40;98.50;;;;;;4927278;29;20055;-76
2024/02/08 14:58:56;;;;;;;31.83;16.38;;;13.50;98.80;;;;;;4929030;28;20418;-76
2024/02/08 15:01:38;;;;;;;32.60;16.30;;;13.50;98.80;;;;;;4928851;28;20031;-76
2024/02/08 15:04:15;;;;;;;35.80;18.52;;;13.50;99.00;;;;;;4929290;28;20038;-75
2024/02/08 15:07:44;;;;;;;47.03;22.17;;;13.50;99.10;;;;;;4927167;28;20451;-76
2024/02/08 15:12:22;;;;;;;43.30;23.48;;;13.30;99.40;;;;;;4927241;28;20047;-75
2024/02/08 15:14:48;;;;;;;39.78;20.02;;;13.30;99.30;;;;;;4927877;28;20504;-77
2024/02/08 15:17:23;;;;;;;39.15;21.30;;;13.30;99.60;;;;;;4929393;28;20059;-77
2024/02/08 15:19:55;;;;;;;41.97;20.92;;;13.30;99.50;;;;;;4930658;28;20039;-76
2024/02/08 15:25:04;;;;;;;38.13;20.13;;;13.10;99.70;;;;;;4930222;28;20432;-76
2024/02/08 15:30:19;;;;;;;47.53;22.00;;;13.00;99.90;;;;;;4927996;28;20057;-76
2024/02/08 15:35:37;;;;;;;37.67;22.20;;;12.80;99.90;;;;;;4930894;29;20417;-76
2024/02/08 15:40:54;;;;;;;63.33;32.20;;;12.60;99.90;;;;;;4930778;28;20055;-76